Latest Weather Observations for Point Fawcett

IDD60901

Issued at 1:55 pm CST Monday 21 April 2014 (issued every 10 minutes, with the page automatically refreshed every 10 minutes)

About weather observations | Map of Darwin area stations | Latest observations for Darwin area | Other Formats
Station Details ID: 200731 Name: POINT FAWCETT Lat: -11.76 Lon: 130.03 Height: 6.5 m
Data from the previous 72 hours. | See also: Recent months at Point Fawcett
Date/Time
CST
Tmp

°C
App
Tmp
°C
Dew
Point
°C
Rel
Hum
%
Delta-T

°C
Wind Press
QNH
hPa
Press
MSL
hPa
Rain
since
9 am
mm
Dir
 
Spd
km/h
Gust
km/h
Spd
kts
Gust
kts
21/01:30pm 32.5 35.3 23.7 59 6.1 ESE 15 24 8 13 1008.9 - -
21/01:00pm 32.0 34.8 23.0 59 6.2 SE 13 20 7 11 1009.1 - -
21/12:30pm 32.3 35.1 23.0 58 6.4 E 13 20 7 11 1009.5 - -
21/12:00pm 32.0 35.0 23.3 60 6.0 SE 13 20 7 11 1009.9 1009.8 -
21/11:30am 32.0 35.4 23.3 60 6.0 ESE 11 17 6 9 1010.2 - -
21/11:00am 31.6 35.0 23.4 61 5.7 E 11 20 6 11 1010.4 - -
21/10:30am 30.8 33.2 22.9 62 5.4 E 15 22 8 12 1010.6 - -
21/10:00am 30.6 33.7 23.5 66 4.9 E 13 20 7 11 1010.6 - -
21/09:30am 30.3 34.2 24.2 70 4.2 ESE 11 17 6 9 1010.4 - -
21/09:00am 29.5 34.5 24.8 76 3.3 ESE 7 13 4 7 1010.2 1010.1 -
21/08:30am 28.2 33.3 25.0 83 2.2 E 7 11 4 6 1010.1 - -
21/08:00am 26.2 31.3 25.0 93 0.8 E 7 11 4 6 1009.9 - -
21/07:30am 24.1 28.1 23.1 94 0.7 SE 7 7 4 4 1009.7 - -
21/07:00am 23.4 27.0 22.4 94 0.7 ESE 7 9 4 5 1009.4 - -
21/06:30am 23.5 27.1 22.3 93 0.8 SE 7 9 4 5 1009.2 - -
21/06:00am 23.7 27.4 22.5 93 0.8 SE 7 7 4 4 1008.9 1008.8 -
21/05:30am 24.0 27.7 22.6 92 0.9 E 7 11 4 6 1008.7 - -
21/05:00am 24.2 28.0 22.8 92 0.9 E 7 9 4 5 1008.6 - -
21/04:30am 24.2 27.9 22.6 91 1.1 E 7 9 4 5 1008.7 - -
21/04:00am 24.2 27.9 22.6 91 1.1 ESE 7 9 4 5 1008.8 - -
21/03:30am 24.3 27.9 22.4 89 1.3 E 7 9 4 5 1008.8 - -
21/03:00am 25.0 28.9 22.9 88 1.4 ESE 7 9 4 5 1009.0 1008.9 -
21/02:30am 24.7 28.4 22.2 86 1.7 E 6 9 3 5 1009.2 - -
21/02:00am 25.4 28.4 22.7 85 1.8 E 11 19 6 10 1009.5 - -
21/01:30am 24.8 28.3 22.9 89 1.3 E 9 13 5 7 1009.5 - -
21/01:00am 24.3 27.8 22.9 92 0.9 E 9 13 5 7 1009.6 - -
21/12:30am 24.1 27.6 22.9 93 0.8 E 9 13 5 7 1009.8 - -
21/12:00am 23.9 27.7 22.7 93 0.8 E 7 9 4 5 1009.5 1009.4 -
 
Date/Time
CST
Tmp

°C
App
Tmp
°C
Dew
Point
°C
Rel
Hum
%
Delta-T

°C
Wind Press
QNH
hPa
Press
MSL
hPa
Rain
since
9 am
mm
Dir
 
Spd
km/h
Gust
km/h
Spd
kts
Gust
kts
20/11:00pm 24.1 27.9 22.7 92 0.9 ENE 7 9 4 5 1009.6 - -
20/10:30pm 24.3 28.2 22.9 92 0.9 ENE 7 9 4 5 1009.7 - -
20/10:00pm 24.3 28.1 22.7 91 1.1 E 7 7 4 4 1009.8 - -
20/09:30pm 24.7 28.5 22.8 89 1.3 E 7 7 4 4 1009.9 - -
20/09:00pm 25.1 28.9 22.8 87 1.6 ENE 7 9 4 5 1009.7 1009.6 -
20/08:30pm 25.5 29.3 22.8 85 1.8 ENE 7 9 4 5 1009.6 - -
20/08:00pm 26.1 29.9 22.8 82 2.2 E 7 9 4 5 1009.3 - -
20/07:30pm 27.2 30.5 21.9 73 3.6 E 7 11 4 6 1009.0 - -
20/07:00pm 27.8 31.0 22.3 72 3.7 E 9 13 5 7 1008.8 - -
20/06:30pm 29.0 32.6 23.0 70 4.1 ESE 9 13 5 7 1008.5 - -
20/06:00pm 29.8 33.2 23.3 68 4.5 ESE 11 19 6 10 1008.2 1008.1 -
20/05:30pm 30.4 33.4 23.3 66 4.9 ESE 13 22 7 12 1008.0 - -
20/05:00pm 30.6 32.9 22.7 62 5.4 ESE 15 22 8 12 1007.8 - -
20/04:30pm 31.0 33.5 23.1 63 5.4 ESE 15 26 8 14 1007.5 - -
20/04:00pm 31.5 34.5 23.3 61 5.7 SE 13 20 7 11 1007.0 - -
20/03:30pm 31.5 34.0 23.1 61 5.8 ESE 15 26 8 14 1007.0 - -
20/03:00pm 32.1 36.0 24.2 63 5.5 SE 11 22 6 12 1007.4 1007.3 -
20/02:30pm 31.5 34.3 23.6 63 5.5 ESE 15 24 8 13 1007.7 - -
20/02:00pm 31.5 34.0 23.1 61 5.8 ESE 15 24 8 13 1007.9 - -
20/01:30pm 31.5 34.3 23.6 63 5.5 ESE 15 26 8 14 1008.3 - -
20/01:00pm 31.3 33.5 22.6 60 5.9 ESE 15 30 8 16 1008.7 - -
20/12:30pm 31.2 33.6 23.0 61 5.6 SE 15 26 8 14 1009.1 - -
20/12:00pm 31.0 33.7 22.9 62 5.6 SE 13 20 7 11 1009.4 1009.3 -
20/11:30am 31.1 33.9 23.7 64 5.1 E 15 22 8 12 1009.9 - -
20/11:00am 30.7 33.5 23.6 66 4.9 ESE 15 26 8 14 1010.4 - -
20/10:30am 30.8 34.4 24.4 68 4.5 ESE 13 20 7 11 1010.6 - -
20/10:00am 30.6 34.3 24.5 70 4.3 ESE 13 26 7 14 1010.6 - -
20/09:30am 29.4 32.9 23.6 71 4.0 ESE 11 19 6 10 1010.4 - -
20/09:00am 28.7 33.0 24.3 77 3.1 E 9 15 5 8 1010.2 1010.1 -
20/08:30am 27.6 32.5 24.6 84 2.1 E 7 13 4 7 1010.1 - -
20/08:00am 26.0 31.0 24.8 93 0.8 ESE 7 11 4 6 1009.9 - -
20/07:30am 24.3 28.5 23.4 95 0.6 ESE 7 9 4 5 1009.5 - -
20/07:00am 23.3 27.0 22.5 95 0.5 SE 7 9 4 5 1009.2 - -
20/06:30am 23.3 27.0 22.3 94 0.7 ESE 6 7 3 4 1009.0 - -
20/06:00am 23.3 26.9 22.3 94 0.7 E 7 7 4 4 1008.8 1008.7 -
20/05:30am 23.3 26.8 22.1 93 0.8 E 7 7 4 4 1008.8 - -
20/05:00am 23.5 27.2 22.3 93 0.8 E 6 7 3 4 1008.7 - -
20/04:30am 23.7 27.4 22.3 92 0.9 E 6 7 3 4 1008.5 - -
20/04:00am 24.0 27.6 22.4 91 1.1 E 7 9 4 5 1008.3 - -
20/03:30am 24.5 28.4 22.9 91 1.1 ESE 7 9 4 5 1008.3 - -
20/03:00am 24.7 28.6 22.9 90 1.2 E 7 11 4 6 1008.4 1008.3 -
20/02:30am 25.0 29.0 23.1 89 1.3 E 7 11 4 6 1008.5 - -
20/02:00am 25.1 28.8 23.2 89 1.3 E 9 15 5 8 1008.8 - -
20/01:30am 25.2 28.6 23.4 90 1.2 E 11 17 6 9 1009.3 - -
20/01:00am 25.1 27.8 23.5 91 1.1 E 15 20 8 11 1009.3 - -
20/12:30am 24.9 28.7 23.5 92 1.0 E 9 15 5 8 1009.8 - -
20/12:00am 25.2 29.3 24.0 93 0.8 E 9 15 5 8 1010.0 1009.9 -
 
Date/Time
CST
Tmp

°C
App
Tmp
°C
Dew
Point
°C
Rel
Hum
%
Delta-T

°C
Wind Press
QNH
hPa
Press
MSL
hPa
Rain
since
9 am
mm
Dir
 
Spd
km/h
Gust
km/h
Spd
kts
Gust
kts
19/11:30pm 25.4 30.0 24.2 93 0.8 E 7 11 4 6 1009.9 - -
19/11:00pm 25.5 30.2 24.3 93 0.8 E 7 11 4 6 1010.3 - -
19/10:30pm 25.5 29.4 24.3 93 0.8 E 11 15 6 8 1010.4 - -
19/10:00pm 25.5 30.2 23.9 91 1.1 SE 6 9 3 5 1010.6 - -
19/09:30pm 27.4 31.5 24.5 84 2.0 E 11 19 6 10 1010.6 - -
19/09:00pm 27.1 31.3 24.7 87 1.7 E 11 17 6 9 1010.3 1010.2 -
19/08:30pm 26.0 30.5 24.0 89 1.4 E 7 9 4 5 1009.6 - -
19/08:00pm 26.1 30.5 23.8 87 1.6 E 7 9 4 5 1009.2 - -
19/07:30pm 26.5 30.9 23.8 85 1.9 E 7 9 4 5 1008.6 - -
19/07:00pm 27.4 31.9 23.6 80 2.6 NE 6 9 3 5 1008.5 - -
19/06:30pm 28.4 33.0 23.8 76 3.2 E 6 9 3 5 1008.2 - -
19/06:00pm 28.9 32.4 23.6 73 3.7 ESE 11 19 6 10 1007.9 1007.8 -
19/05:30pm 29.4 33.3 24.3 74 3.5 ESE 11 20 6 11 1007.8 - -
19/05:00pm 30.8 34.4 24.4 68 4.5 ESE 13 20 7 11 1007.4 - -
19/04:30pm 31.9 35.4 24.2 63 5.4 ESE 13 20 7 11 1007.1 - -
19/04:00pm 32.3 35.9 24.3 62 5.6 ESE 13 19 7 10 1006.9 - -
19/03:30pm 31.0 34.1 23.6 64 5.1 ESE 13 24 7 13 1006.9 - -
19/03:00pm 31.9 35.6 25.2 67 4.7 SE 15 26 8 14 1007.2 1007.1 -
19/02:30pm 32.1 36.2 25.7 69 4.6 ESE 15 22 8 12 1007.4 - -
19/02:00pm 31.8 36.0 25.4 69 4.5 SE 13 20 7 11 1007.7 - -
19/01:30pm 31.4 35.2 25.3 70 4.3 SE 15 28 8 15 1008.2 - -
19/01:00pm 32.4 36.8 24.4 62 5.6 ESE 9 15 5 8 1008.6 - -
19/12:30pm 31.9 36.4 25.2 67 4.7 ESE 11 19 6 10 1009.1 - -
19/12:00pm 32.0 36.0 25.1 67 4.9 E 13 22 7 12 1009.6 1009.5 -
19/11:30am 31.6 35.2 23.7 63 5.5 E 11 20 6 11 1010.1 - -
19/11:00am 31.5 34.3 23.6 63 5.5 E 15 22 8 12 1010.6 - -
19/10:30am 30.9 34.0 24.1 67 4.7 ESE 15 22 8 12 1010.8 - -
19/10:00am 30.6 33.9 24.5 70 4.3 E 15 22 8 12 1010.9 - -
19/09:30am 30.0 33.5 24.2 71 4.0 E 13 22 7 12 1010.7 - -
19/09:00am 29.0 32.6 24.3 76 3.3 E 13 22 7 12 1010.7 1010.6 -
19/08:30am 27.7 31.5 24.1 81 2.5 E 11 17 6 9 1010.7 - -
19/08:00am 26.6 31.2 24.8 90 1.3 E 9 13 5 7 1010.7 - -
19/07:30am 25.5 30.3 24.5 94 0.7 E 7 11 4 6 1010.5 - -
19/07:00am 25.0 29.1 24.0 94 0.7 E 9 13 5 7 1010.3 - -
19/06:30am 25.0 29.1 24.0 94 0.7 E 9 13 5 7 1010.0 - -
19/06:00am 25.0 29.1 24.0 94 0.7 E 9 15 5 8 1009.9 1009.8 -
19/05:30am 25.1 29.4 24.2 95 0.6 E 9 11 5 6 1009.8 - -
19/05:00am 25.2 29.9 24.3 95 0.6 E 7 9 4 5 1009.5 - -
19/04:30am 25.6 30.5 24.7 95 0.6 E 7 11 4 6 1009.6 - -
19/04:00am 25.5 31.0 24.6 95 0.6 E 4 9 2 5 1009.5 - -
19/03:30am 25.4 30.7 24.4 94 0.7 SSE 4 6 2 3 1009.8 - -
19/03:00am 25.4 30.7 24.4 94 0.7 E 4 6 2 3 1009.8 1009.7 -
19/02:30am 25.6 31.8 24.6 94 0.7 CALM 0 0 0 0 1009.8 - -
19/02:00am 25.5 31.6 24.5 94 0.7 CALM 0 0 0 0 1010.3 - -
19/01:30am 25.5 31.3 24.5 94 0.7 ENE 2 7 1 4 1010.6 - -
19/01:00am 25.4 31.4 24.2 93 0.8 CALM 0 7 0 4 1010.8 - -
19/12:30am 25.5 31.4 24.1 92 1.0 CALM 0 2 0 1 1011.2 - -
19/12:00am 25.5 29.7 24.1 92 1.0 E 9 15 5 8 1011.3 1011.2 -
 
Date/Time
CST
Tmp

°C
App
Tmp
°C
Dew
Point
°C
Rel
Hum
%
Delta-T

°C
Wind Press
QNH
hPa
Press
MSL
hPa
Rain
since
9 am
mm
Dir
 
Spd
km/h
Gust
km/h
Spd
kts
Gust
kts
18/11:30pm 25.8 29.9 24.0 90 1.2 ESE 9 13 5 7 1011.5 - -
18/11:00pm 25.7 29.4 23.9 90 1.2 ESE 11 15 6 8 1011.4 - -
18/10:30pm 25.8 30.4 24.2 91 1.1 ESE 7 7 4 4 1011.5 - -
18/10:00pm 25.9 30.5 24.1 90 1.2 E 7 9 4 5 1011.4 - -
18/09:30pm 26.0 30.8 24.4 91 1.1 E 7 9 4 5 1011.3 - -
18/09:00pm 25.8 30.6 24.4 92 1.0 ESE 7 7 4 4 1011.1 1011.0 -
18/08:30pm 25.8 30.4 24.2 91 1.1 E 7 7 4 4 1010.8 - -
18/08:00pm 25.7 30.2 23.7 89 1.4 ESE 6 7 3 4 1010.8 - -
18/07:30pm 26.0 30.5 23.7 87 1.6 ENE 6 6 3 3 1010.4 - -
18/07:00pm 26.5 30.8 23.6 84 2.0 E 7 9 4 5 1010.3 - -
18/06:30pm 27.0 31.7 23.9 83 2.1 E 6 7 3 4 1009.9 - -
18/06:00pm 27.3 31.3 23.7 81 2.5 ENE 9 13 5 7 1009.6 1009.5 -
18/05:30pm 26.9 31.3 23.8 83 2.1 ENE 7 11 4 6 1009.1 - -
18/05:00pm 27.0 31.6 24.1 84 2.0 NE 7 11 4 6 1008.9 - -
18/04:30pm 26.6 29.9 23.9 85 1.9 N 13 20 7 11 1008.5 - -
18/04:00pm 26.6 28.3 23.1 81 2.4 NE 19 30 10 16 1009.0 - -
18/03:30pm 30.5 34.6 24.6 70 4.1 NW 11 19 6 10 1008.4 - -
18/03:00pm 30.9 35.2 24.3 68 4.6 WSW 9 15 5 8 1008.6 1008.5 -
18/02:30pm 30.5 34.4 24.2 69 4.4 E 11 20 6 11 1008.9 - -
18/02:00pm 33.2 37.2 24.4 60 6.2 N 11 19 6 10 1008.8 - -

Latest Capital City Observations: Canberra | Sydney | Melbourne | Brisbane | Adelaide | Perth | Hobart | Darwin

Other Formats:

Comma delimited format used in spreadsheet applications
http://www.bom.gov.au/fwo/IDD60901/IDD60901.94122.axf

JavaScript Object Notation format (JSON) in row-major order
http://www.bom.gov.au/fwo/IDD60901/IDD60901.94122.json